sensor_id;sensor_type;location;lat;lon;timestamp;pressure;altitude;pressure_sealevel;temperature;humidity
13013;BME280;22580;57.670;12.006;2024-03-02T00:00:51;100719.25;;;15.18;91.17
13013;BME280;22580;57.670;12.006;2024-03-02T00:03:22;100725.50;;;15.18;91.42
13013;BME280;22580;57.670;12.006;2024-03-02T00:05:50;100730.75;;;15.20;91.26
13013;BME280;22580;57.670;12.006;2024-03-02T00:08:24;100727.06;;;15.21;91.21
13013;BME280;22580;57.670;12.006;2024-03-02T00:10:53;100711.72;;;15.12;91.27
13013;BME280;22580;57.670;12.006;2024-03-02T00:13:23;100703.09;;;15.18;90.68
13013;BME280;22580;57.670;12.006;2024-03-02T00:15:52;100716.59;;;15.37;90.60
13013;BME280;22580;57.670;12.006;2024-03-02T00:18:20;100722.84;;;15.37;90.26
13013;BME280;22580;57.670;12.006;2024-03-02T00:20:54;100726.38;;;15.38;90.32
13013;BME280;22580;57.670;12.006;2024-03-02T00:23:23;100726.50;;;15.17;91.15
13013;BME280;22580;57.670;12.006;2024-03-02T00:25:51;100700.50;;;14.97;91.29
13013;BME280;22580;57.670;12.006;2024-03-02T00:28:21;100730.31;;;15.15;91.45
13013;BME280;22580;57.670;12.006;2024-03-02T00:30:55;100731.44;;;15.12;91.15
13013;BME280;22580;57.670;12.006;2024-03-02T00:33:23;100727.03;;;15.11;91.30
13013;BME280;22580;57.670;12.006;2024-03-02T00:35:55;100724.91;;;15.05;91.65
13013;BME280;22580;57.670;12.006;2024-03-02T00:38:22;100732.44;;;15.11;91.47
13013;BME280;22580;57.670;12.006;2024-03-02T00:40:49;100737.81;;;15.11;91.29
13013;BME280;22580;57.670;12.006;2024-03-02T00:43:54;100738.22;;;15.06;91.32
13013;BME280;22580;57.670;12.006;2024-03-02T00:46:23;100729.28;;;14.96;91.12
13013;BME280;22580;57.670;12.006;2024-03-02T00:48:54;100747.56;;;15.02;91.40
13013;BME280;22580;57.670;12.006;2024-03-02T00:51:24;100747.84;;;14.99;91.31
13013;BME280;22580;57.670;12.006;2024-03-02T00:53:54;100745.16;;;14.99;91.47
13013;BME280;22580;57.670;12.006;2024-03-02T00:56:22;100742.31;;;15.01;91.55
13013;BME280;22580;57.670;12.006;2024-03-02T00:58:50;100747.25;;;14.96;91.32
13013;BME280;22580;57.670;12.006;2024-03-02T01:01:17;100747.53;;;14.93;91.37
13013;BME280;22580;57.670;12.006;2024-03-02T01:03:45;100741.72;;;14.88;91.52
13013;BME280;22580;57.670;12.006;2024-03-02T01:06:13;100741.84;;;14.86;91.42
13013;BME280;22580;57.670;12.006;2024-03-02T01:08:42;100747.94;;;14.88;91.73
13013;BME280;22580;57.670;12.006;2024-03-02T01:11:09;100746.38;;;14.86;91.83
13013;BME280;22580;57.670;12.006;2024-03-02T01:13:36;100740.28;;;14.84;91.94
13013;BME280;22580;57.670;12.006;2024-03-02T01:16:03;100746.94;;;14.89;91.74
13013;BME280;22580;57.670;12.006;2024-03-02T01:18:30;100738.88;;;14.89;91.78
13013;BME280;22580;57.670;12.006;2024-03-02T01:20:57;100744.25;;;14.89;92.26
13013;BME280;22580;57.670;12.006;2024-03-02T01:23:25;100749.19;;;14.84;92.48
13013;BME280;22580;57.670;12.006;2024-03-02T01:25:54;100750.22;;;14.93;92.07
13013;BME280;22580;57.670;12.006;2024-03-02T01:28:21;100753.19;;;14.90;92.41
13013;BME280;22580;57.670;12.006;2024-03-02T01:30:48;100748.66;;;14.90;92.25
13013;BME280;22580;57.670;12.006;2024-03-02T01:33:17;100740.88;;;14.97;92.29
13013;BME280;22580;57.670;12.006;2024-03-02T01:35:44;100728.28;;;14.97;92.08
13013;BME280;22580;57.670;12.006;2024-03-02T01:38:12;100742.63;;;15.07;91.91
13013;BME280;22580;57.670;12.006;2024-03-02T01:40:39;100730.25;;;14.95;92.01
13013;BME280;22580;57.670;12.006;2024-03-02T01:43:08;100738.09;;;15.08;91.92
13013;BME280;22580;57.670;12.006;2024-03-02T01:45:35;100734.81;;;15.04;91.84
13013;BME280;22580;57.670;12.006;2024-03-02T01:48:03;100730.66;;;14.91;92.19
13013;BME280;22580;57.670;12.006;2024-03-02T01:50:31;100718.59;;;14.85;92.05
13013;BME280;22580;57.670;12.006;2024-03-02T01:53:00;100703.28;;;14.76;92.00
13013;BME280;22580;57.670;12.006;2024-03-02T01:55:28;100720.81;;;15.11;91.68
13013;BME280;22580;57.670;12.006;2024-03-02T01:57:56;100707.78;;;15.16;90.83
13013;BME280;22580;57.670;12.006;2024-03-02T02:00:24;100705.09;;;15.25;90.83
13013;BME280;22580;57.670;12.006;2024-03-02T02:02:51;100705.94;;;15.26;90.71
13013;BME280;22580;57.670;12.006;2024-03-02T02:05:19;100712.16;;;15.17;90.75
13013;BME280;22580;57.670;12.006;2024-03-02T02:07:46;100705.50;;;15.21;90.89
13013;BME280;22580;57.670;12.006;2024-03-02T02:10:13;100697.56;;;15.19;90.35
13013;BME280;22580;57.670;12.006;2024-03-02T02:12:40;100682.69;;;15.15;90.25
13013;BME280;22580;57.670;12.006;2024-03-02T02:15:26;100697.44;;;15.21;90.64
13013;BME280;22580;57.670;12.006;2024-03-02T02:17:53;100702.97;;;15.19;90.36
13013;BME280;22580;57.670;12.006;2024-03-02T02:20:21;100702.81;;;15.21;89.86
13013;BME280;22580;57.670;12.006;2024-03-02T02:22:57;100691.78;;;15.24;90.04
13013;BME280;22580;57.670;12.006;2024-03-02T02:25:25;100688.22;;;15.14;90.12
13013;BME280;22580;57.670;12.006;2024-03-02T02:27:52;100686.50;;;15.13;89.78
13013;BME280;22580;57.670;12.006;2024-03-02T02:30:20;100683.81;;;15.03;89.87
13013;BME280;22580;57.670;12.006;2024-03-02T02:32:47;100675.97;;;14.90;89.68
13013;BME280;22580;57.670;12.006;2024-03-02T02:35:15;100684.50;;;14.95;89.78
13013;BME280;22580;57.670;12.006;2024-03-02T02:37:42;100678.94;;;14.87;90.02
13013;BME280;22580;57.670;12.006;2024-03-02T02:40:12;100681.50;;;14.89;90.09
13013;BME280;22580;57.670;12.006;2024-03-02T02:42:40;100674.00;;;14.92;90.16
13013;BME280;22580;57.670;12.006;2024-03-02T02:45:07;100658.66;;;14.73;90.46
13013;BME280;22580;57.670;12.006;2024-03-02T02:47:34;100656.56;;;14.77;90.24
13013;BME280;22580;57.670;12.006;2024-03-02T02:50:02;100665.00;;;14.53;91.19
13013;BME280;22580;57.670;12.006;2024-03-02T02:52:33;100647.16;;;14.52;91.62
13013;BME280;22580;57.670;12.006;2024-03-02T02:55:03;100638.13;;;14.63;91.55
13013;BME280;22580;57.670;12.006;2024-03-02T02:57:31;100644.97;;;14.86;90.71
13013;BME280;22580;57.670;12.006;2024-03-02T03:00:02;100544.28;;;14.20;90.91
13013;BME280;22580;57.670;12.006;2024-03-02T03:02:36;100634.03;;;14.78;91.02
13013;BME280;22580;57.670;12.006;2024-03-02T03:05:04;100641.53;;;14.65;91.92
13013;BME280;22580;57.670;12.006;2024-03-02T03:07:31;100618.56;;;14.51;92.14
13013;BME280;22580;57.670;12.006;2024-03-02T03:09:58;100646.66;;;14.87;91.24
13013;BME280;22580;57.670;12.006;2024-03-02T03:12:25;100644.97;;;14.86;90.82
13013;BME280;22580;57.670;12.006;2024-03-02T03:14:56;100646.53;;;14.89;90.73
13013;BME280;22580;57.670;12.006;2024-03-02T03:17:23;100641.84;;;14.81;90.89
13013;BME280;22580;57.670;12.006;2024-03-02T03:19:50;100637.72;;;14.77;90.66
13013;BME280;22580;57.670;12.006;2024-03-02T03:22:17;100654.44;;;14.81;90.54
13013;BME280;22580;57.670;12.006;2024-03-02T03:24:44;100653.44;;;14.72;90.42
13013;BME280;22580;57.670;12.006;2024-03-02T03:27:12;100640.69;;;14.74;90.40
13013;BME280;22580;57.670;12.006;2024-03-02T03:29:39;100654.72;;;14.68;90.35
13013;BME280;22580;57.670;12.006;2024-03-02T03:32:09;100650.59;;;14.73;90.51
13013;BME280;22580;57.670;12.006;2024-03-02T03:34:36;100652.31;;;14.65;90.24
13013;BME280;22580;57.670;12.006;2024-03-02T03:37:03;100644.19;;;14.55;90.59
13013;BME280;22580;57.670;12.006;2024-03-02T03:39:30;100654.00;;;14.66;90.63
13013;BME280;22580;57.670;12.006;2024-03-02T03:41:57;100647.34;;;14.70;90.45
13013;BME280;22580;57.670;12.006;2024-03-02T03:44:24;100636.97;;;14.56;90.27
13013;BME280;22580;57.670;12.006;2024-03-02T03:46:51;100645.59;;;14.50;90.76
13013;BME280;22580;57.670;12.006;2024-03-02T03:49:20;100645.31;;;14.22;91.73
13013;BME280;22580;57.670;12.006;2024-03-02T03:51:47;100645.84;;;14.16;92.29
13013;BME280;22580;57.670;12.006;2024-03-02T03:54:14;100629.13;;;14.13;92.00
13013;BME280;22580;57.670;12.006;2024-03-02T03:56:44;100657.84;;;14.12;92.21
13013;BME280;22580;57.670;12.006;2024-03-02T03:59:11;100655.09;;;14.02;92.77
13013;BME280;22580;57.670;12.006;2024-03-02T04:01:38;100655.56;;;14.07;92.77
13013;BME280;22580;57.670;12.006;2024-03-02T04:04:05;100654.66;;;13.97;93.21
13013;BME280;22580;57.670;12.006;2024-03-02T04:06:36;100657.75;;;13.93;93.54
13013;BME280;22580;57.670;12.006;2024-03-02T04:09:03;100649.09;;;13.89;93.44
13013;BME280;22580;57.670;12.006;2024-03-02T04:11:30;100648.38;;;13.87;93.83
13013;BME280;22580;57.670;12.006;2024-03-02T04:13:58;100623.53;;;13.95;93.53
13013;BME280;22580;57.670;12.006;2024-03-02T04:16:25;100646.41;;;13.89;94.18
13013;BME280;22580;57.670;12.006;2024-03-02T04:18:52;100637.03;;;14.04;93.71
13013;BME280;22580;57.670;12.006;2024-03-02T04:21:20;100631.63;;;14.04;93.68
13013;BME280;22580;57.670;12.006;2024-03-02T04:23:49;100635.38;;;14.13;93.58
13013;BME280;22580;57.670;12.006;2024-03-02T04:26:17;100631.69;;;14.14;93.27
13013;BME280;22580;57.670;12.006;2024-03-02T04:28:47;100622.06;;;14.11;92.99
13013;BME280;22580;57.670;12.006;2024-03-02T04:31:14;100633.41;;;14.15;93.33
13013;BME280;22580;57.670;12.006;2024-03-02T04:33:42;100638.50;;;14.18;93.26
13013;BME280;22580;57.670;12.006;2024-03-02T04:36:09;100634.38;;;14.14;93.42
13013;BME280;22580;57.670;12.006;2024-03-02T04:38:36;100629.19;;;14.22;92.99
13013;BME280;22580;57.670;12.006;2024-03-02T04:41:06;100615.50;;;14.04;93.45
13013;BME280;22580;57.670;12.006;2024-03-02T04:43:33;100613.81;;;14.03;93.13
13013;BME280;22580;57.670;12.006;2024-03-02T04:46:01;100621.22;;;14.11;93.26
13013;BME280;22580;57.670;12.006;2024-03-02T04:48:28;100623.09;;;14.20;92.97
13013;BME280;22580;57.670;12.006;2024-03-02T04:50:55;100619.50;;;14.10;92.96
13013;BME280;22580;57.670;12.006;2024-03-02T04:53:22;100628.81;;;14.06;93.40
13013;BME280;22580;57.670;12.006;2024-03-02T04:55:48;100632.81;;;14.11;93.51
13013;BME280;22580;57.670;12.006;2024-03-02T04:58:33;100604.25;;;13.90;93.65
13013;BME280;22580;57.670;12.006;2024-03-02T05:01:02;100631.41;;;14.17;93.85
13013;BME280;22580;57.670;12.006;2024-03-02T05:03:29;100633.06;;;14.08;94.15
13013;BME280;22580;57.670;12.006;2024-03-02T05:05:56;100619.63;;;14.08;94.96
13013;BME280;22580;57.670;12.006;2024-03-02T05:08:22;100627.13;;;14.05;94.96
13013;BME280;22580;57.670;12.006;2024-03-02T05:10:49;100627.47;;;13.91;95.24
13013;BME280;22580;57.670;12.006;2024-03-02T05:13:16;100622.47;;;14.07;94.91
13013;BME280;22580;57.670;12.006;2024-03-02T05:15:44;100611.56;;;14.08;94.16
13013;BME280;22580;57.670;12.006;2024-03-02T05:18:12;100620.50;;;14.09;94.79
13013;BME280;22580;57.670;12.006;2024-03-02T05:20:38;100620.13;;;14.23;94.65
13013;BME280;22580;57.670;12.006;2024-03-02T05:23:05;100629.09;;;14.33;94.68
13013;BME280;22580;57.670;12.006;2024-03-02T05:25:32;100615.69;;;14.13;94.81
13013;BME280;22580;57.670;12.006;2024-03-02T05:28:00;100618.03;;;14.27;95.09
13013;BME280;22580;57.670;12.006;2024-03-02T05:30:27;100621.88;;;14.34;94.84
13013;BME280;22580;57.670;12.006;2024-03-02T05:32:56;100627.31;;;14.43;94.56
13013;BME280;22580;57.670;12.006;2024-03-02T05:35:23;100617.56;;;14.52;94.45
13013;BME280;22580;57.670;12.006;2024-03-02T05:37:50;100626.22;;;14.56;94.36
13013;BME280;22580;57.670;12.006;2024-03-02T05:40:17;100627.63;;;14.50;94.45
13013;BME280;22580;57.670;12.006;2024-03-02T05:42:44;100617.28;;;14.46;94.81
13013;BME280;22580;57.670;12.006;2024-03-02T05:45:11;100626.06;;;14.48;94.90
13013;BME280;22580;57.670;12.006;2024-03-02T05:47:38;100612.53;;;14.38;94.63
13013;BME280;22580;57.670;12.006;2024-03-02T05:50:07;100618.84;;;14.48;94.86
13013;BME280;22580;57.670;12.006;2024-03-02T05:52:34;100625.66;;;14.52;95.01
13013;BME280;22580;57.670;12.006;2024-03-02T05:55:01;100621.31;;;14.40;95.28
13013;BME280;22580;57.670;12.006;2024-03-02T05:57:28;100626.94;;;14.58;95.21
13013;BME280;22580;57.670;12.006;2024-03-02T06:00:15;100629.75;;;14.56;95.51
13013;BME280;22580;57.670;12.006;2024-03-02T06:02:42;100631.59;;;14.56;95.41
13013;BME280;22580;57.670;12.006;2024-03-02T06:05:11;100625.22;;;14.57;95.26
13013;BME280;22580;57.670;12.006;2024-03-02T06:07:38;100635.31;;;14.64;95.23
13013;BME280;22580;57.670;12.006;2024-03-02T06:10:06;100604.34;;;14.39;95.45
13013;BME280;22580;57.670;12.006;2024-03-02T06:12:34;100631.19;;;14.60;95.28
13013;BME280;22580;57.670;12.006;2024-03-02T06:15:01;100634.03;;;14.78;95.03
13013;BME280;22580;57.670;12.006;2024-03-02T06:17:29;100633.19;;;14.77;94.92
13013;BME280;22580;57.670;12.006;2024-03-02T06:19:56;100635.31;;;14.84;94.84
13013;BME280;22580;57.670;12.006;2024-03-02T06:22:24;100611.22;;;14.63;94.61
13013;BME280;22580;57.670;12.006;2024-03-02T06:24:51;100638.72;;;14.86;94.66
13013;BME280;22580;57.670;12.006;2024-03-02T06:27:18;100633.78;;;14.91;94.50
13013;BME280;22580;57.670;12.006;2024-03-02T06:29:46;100631.53;;;14.96;94.65
13013;BME280;22580;57.670;12.006;2024-03-02T06:32:13;100624.84;;;14.71;95.05
13013;BME280;22580;57.670;12.006;2024-03-02T06:34:41;100628.25;;;14.92;94.83
13013;BME280;22580;57.670;12.006;2024-03-02T06:37:08;100620.06;;;15.03;94.18
13013;BME280;22580;57.670;12.006;2024-03-02T06:39:37;100630.09;;;15.01;94.84
13013;BME280;22580;57.670;12.006;2024-03-02T06:42:04;100629.13;;;15.02;94.63
13013;BME280;22580;57.670;12.006;2024-03-02T06:44:31;100631.38;;;15.07;94.93
13013;BME280;22580;57.670;12.006;2024-03-02T06:46:59;100634.09;;;15.07;94.46
13013;BME280;22580;57.670;12.006;2024-03-02T06:49:26;100623.59;;;15.23;94.02
13013;BME280;22580;57.670;12.006;2024-03-02T06:51:53;100616.38;;;15.24;94.08
13013;BME280;22580;57.670;12.006;2024-03-02T06:54:21;100623.47;;;15.44;93.63
13013;BME280;22580;57.670;12.006;2024-03-02T06:56:49;100606.03;;;15.29;93.74
13013;BME280;22580;57.670;12.006;2024-03-02T06:59:16;100611.28;;;15.40;93.60
13013;BME280;22580;57.670;12.006;2024-03-02T07:01:43;100619.91;;;15.44;93.77
13013;BME280;22580;57.670;12.006;2024-03-02T07:04:10;100639.47;;;15.55;93.46
13013;BME280;22580;57.670;12.006;2024-03-02T07:06:37;100622.03;;;15.30;94.31
13013;BME280;22580;57.670;12.006;2024-03-02T07:09:04;100622.31;;;15.27;94.79
13013;BME280;22580;57.670;12.006;2024-03-02T07:11:32;100632.25;;;15.17;95.64
13013;BME280;22580;57.670;12.006;2024-03-02T07:14:01;100635.22;;;15.04;96.08
13013;BME280;22580;57.670;12.006;2024-03-02T07:16:28;100634.59;;;14.82;97.41
13013;BME280;22580;57.670;12.006;2024-03-02T07:18:58;100603.91;;;15.03;96.02
13013;BME280;22580;57.670;12.006;2024-03-02T07:21:27;100633.09;;;15.37;96.10
13013;BME280;22580;57.670;12.006;2024-03-02T07:23:54;100624.31;;;15.45;95.31
13013;BME280;22580;57.670;12.006;2024-03-02T07:26:21;100635.78;;;15.56;95.16
13013;BME280;22580;57.670;12.006;2024-03-02T07:28:48;100635.34;;;15.61;94.70
13013;BME280;22580;57.670;12.006;2024-03-02T07:31:17;100616.91;;;15.56;94.87
13013;BME280;22580;57.670;12.006;2024-03-02T07:33:44;100621.72;;;15.72;94.31
13013;BME280;22580;57.670;12.006;2024-03-02T07:36:12;100626.41;;;15.70;94.63
13013;BME280;22580;57.670;12.006;2024-03-02T07:38:39;100624.16;;;15.56;95.05
13013;BME280;22580;57.670;12.006;2024-03-02T07:41:06;100623.06;;;15.58;94.71
13013;BME280;22580;57.670;12.006;2024-03-02T07:43:34;100625.25;;;15.72;94.44
13013;BME280;22580;57.670;12.006;2024-03-02T07:46:01;100597.09;;;15.57;93.99
13013;BME280;22580;57.670;12.006;2024-03-02T07:48:32;100610.69;;;15.56;94.58
13013;BME280;22580;57.670;12.006;2024-03-02T07:50:59;100621.91;;;15.41;95.00
13013;BME280;22580;57.670;12.006;2024-03-02T07:53:27;100626.00;;;15.36;95.37
13013;BME280;22580;57.670;12.006;2024-03-02T07:55:54;100628.69;;;15.46;95.65
13013;BME280;22580;57.670;12.006;2024-03-02T07:58:27;100613.25;;;15.38;95.64
13013;BME280;22580;57.670;12.006;2024-03-02T08:00:54;100628.28;;;15.50;95.28
13013;BME280;22580;57.670;12.006;2024-03-02T08:03:21;100614.94;;;15.49;95.40
13013;BME280;22580;57.670;12.006;2024-03-02T08:05:50;100620.34;;;15.58;95.19
13013;BME280;22580;57.670;12.006;2024-03-02T08:08:17;100625.28;;;15.53;95.25
13013;BME280;22580;57.670;12.006;2024-03-02T08:10:44;100620.22;;;15.60;95.38
13013;BME280;22580;57.670;12.006;2024-03-02T08:13:11;100614.22;;;15.56;95.95
13013;BME280;22580;57.670;12.006;2024-03-02T08:15:38;100618.06;;;15.25;97.21
13013;BME280;22580;57.670;12.006;2024-03-02T08:18:05;100619.78;;;15.35;97.30
13013;BME280;22580;57.670;12.006;2024-03-02T08:20:33;100618.91;;;15.54;96.95
13013;BME280;22580;57.670;12.006;2024-03-02T08:23:02;100613.09;;;15.49;97.93
13013;BME280;22580;57.670;12.006;2024-03-02T08:25:28;100622.72;;;15.71;97.13
13013;BME280;22580;57.670;12.006;2024-03-02T08:27:56;100604.00;;;15.69;97.23
13013;BME280;22580;57.670;12.006;2024-03-02T08:30:23;100603.28;;;15.77;96.81
13013;BME280;22580;57.670;12.006;2024-03-02T08:32:50;100615.16;;;15.84;96.87
13013;BME280;22580;57.670;12.006;2024-03-02T08:35:17;100593.63;;;15.74;96.61
13013;BME280;22580;57.670;12.006;2024-03-02T08:37:44;100589.47;;;15.90;95.85
13013;BME280;22580;57.670;12.006;2024-03-02T08:40:14;100610.13;;;16.09;95.55
13013;BME280;22580;57.670;12.006;2024-03-02T08:42:42;100598.31;;;15.72;96.87
13013;BME280;22580;57.670;12.006;2024-03-02T08:45:09;100558.66;;;15.55;96.95
13013;BME280;22580;57.670;12.006;2024-03-02T08:47:36;100613.84;;;15.98;96.84
13013;BME280;22580;57.670;12.006;2024-03-02T08:50:04;100580.09;;;15.94;96.77
13013;BME280;22580;57.670;12.006;2024-03-02T08:52:32;100610.28;;;16.07;96.86
13013;BME280;22580;57.670;12.006;2024-03-02T08:54:59;100609.28;;;16.08;96.69
13013;BME280;22580;57.670;12.006;2024-03-02T08:57:30;100613.53;;;16.11;96.48
13013;BME280;22580;57.670;12.006;2024-03-02T08:59:57;100608.56;;;16.06;96.72
13013;BME280;22580;57.670;12.006;2024-03-02T09:02:38;100608.06;;;15.93;97.12
13013;BME280;22580;57.670;12.006;2024-03-02T09:05:06;100616.19;;;16.20;96.31
13013;BME280;22580;57.670;12.006;2024-03-02T09:07:34;100610.59;;;16.31;96.20
13013;BME280;22580;57.670;12.006;2024-03-02T09:10:01;100584.34;;;16.33;95.70
13013;BME280;22580;57.670;12.006;2024-03-02T09:12:29;100613.97;;;16.61;95.28
13013;BME280;22580;57.670;12.006;2024-03-02T09:14:56;100550.38;;;16.13;95.44
13013;BME280;22580;57.670;12.006;2024-03-02T09:17:25;100599.31;;;16.46;96.05
13013;BME280;22580;57.670;12.006;2024-03-02T09:19:51;100620.84;;;16.83;94.80
13013;BME280;22580;57.670;12.006;2024-03-02T09:22:19;100573.69;;;16.32;96.02
13013;BME280;22580;57.670;12.006;2024-03-02T09:24:46;100616.19;;;16.75;95.88
13013;BME280;22580;57.670;12.006;2024-03-02T09:27:13;100621.09;;;16.34;97.48
13013;BME280;22580;57.670;12.006;2024-03-02T09:29:42;100583.44;;;16.43;97.24
13013;BME280;22580;57.670;12.006;2024-03-02T09:32:13;100615.13;;;16.58;97.18
13013;BME280;22580;57.670;12.006;2024-03-02T09:34:41;100590.88;;;16.49;97.19
13013;BME280;22580;57.670;12.006;2024-03-02T09:37:09;100616.09;;;16.67;96.92
13013;BME280;22580;57.670;12.006;2024-03-02T09:39:36;100604.88;;;16.44;97.35
13013;BME280;22580;57.670;12.006;2024-03-02T09:42:05;100592.53;;;16.42;97.29
13013;BME280;22580;57.670;12.006;2024-03-02T09:44:33;100620.06;;;16.63;97.67
13013;BME280;22580;57.670;12.006;2024-03-02T09:47:04;100619.94;;;16.64;97.66
13013;BME280;22580;57.670;12.006;2024-03-02T09:49:34;100628.75;;;16.57;97.86
13013;BME280;22580;57.670;12.006;2024-03-02T09:52:03;100609.72;;;16.58;97.90
13013;BME280;22580;57.670;12.006;2024-03-02T09:54:31;100620.81;;;16.65;97.42
13013;BME280;22580;57.670;12.006;2024-03-02T09:56:58;100601.63;;;16.58;98.13
13013;BME280;22580;57.670;12.006;2024-03-02T09:59:27;100565.16;;;16.54;97.10
13013;BME280;22580;57.670;12.006;2024-03-02T10:01:58;100619.22;;;16.90;97.18
13013;BME280;22580;57.670;12.006;2024-03-02T10:04:29;100600.31;;;16.62;97.44
13013;BME280;22580;57.670;12.006;2024-03-02T10:07:11;100608.41;;;16.90;97.09
13013;BME280;22580;57.670;12.006;2024-03-02T10:09:42;100575.47;;;16.41;97.51
13013;BME280;22580;57.670;12.006;2024-03-02T10:12:16;100605.72;;;16.62;97.89
13013;BME280;22580;57.670;12.006;2024-03-02T10:14:45;100556.06;;;16.37;97.63
13013;BME280;22580;57.670;12.006;2024-03-02T10:17:31;100529.38;;;16.34;97.19
13013;BME280;22580;57.670;12.006;2024-03-02T10:20:22;100579.59;;;16.63;97.60
13013;BME280;22580;57.670;12.006;2024-03-02T10:22:51;100622.56;;;17.01;96.72
13013;BME280;22580;57.670;12.006;2024-03-02T10:25:46;100615.38;;;16.92;96.82
13013;BME280;22580;57.670;12.006;2024-03-02T10:28:13;100618.75;;;16.94;96.98
13013;BME280;22580;57.670;12.006;2024-03-02T10:30:47;100589.91;;;16.95;96.35
13013;BME280;22580;57.670;12.006;2024-03-02T10:33:28;100621.31;;;17.14;96.36
13013;BME280;22580;57.670;12.006;2024-03-02T10:35:57;100616.06;;;17.30;96.04
13013;BME280;22580;57.670;12.006;2024-03-02T10:38:25;100609.75;;;17.21;95.88
13013;BME280;22580;57.670;12.006;2024-03-02T10:40:51;100568.94;;;17.07;95.60
13013;BME280;22580;57.670;12.006;2024-03-02T10:43:21;100618.19;;;17.44;95.77
13013;BME280;22580;57.670;12.006;2024-03-02T10:45:49;100613.78;;;17.43;95.78
13013;BME280;22580;57.670;12.006;2024-03-02T10:48:17;100591.06;;;17.28;96.15
13013;BME280;22580;57.670;12.006;2024-03-02T10:54:25;100612.38;;;17.57;95.63
13013;BME280;22580;57.670;12.006;2024-03-02T10:57:11;100565.22;;;17.25;95.58
13013;BME280;22580;57.670;12.006;2024-03-02T10:59:48;100600.72;;;17.56;95.50
13013;BME280;22580;57.670;12.006;2024-03-02T11:02:24;100610.38;;;17.15;97.43
13013;BME280;22580;57.670;12.006;2024-03-02T11:04:59;100609.69;;;17.39;96.87
13013;BME280;22580;57.670;12.006;2024-03-02T11:07:27;100534.00;;;16.87;97.06
13013;BME280;22580;57.670;12.006;2024-03-02T11:09:58;100595.50;;;17.37;96.65
13013;BME280;22580;57.670;12.006;2024-03-02T11:12:29;100588.25;;;17.37;96.33
13013;BME280;22580;57.670;12.006;2024-03-02T11:14:56;100606.84;;;17.41;96.55
13013;BME280;22580;57.670;12.006;2024-03-02T11:17:26;100617.44;;;17.34;97.02
13013;BME280;22580;57.670;12.006;2024-03-02T11:19:53;100611.22;;;17.16;97.61
13013;BME280;22580;57.670;12.006;2024-03-02T11:22:21;100600.50;;;17.24;97.32
13013;BME280;22580;57.670;12.006;2024-03-02T11:24:48;100615.41;;;17.36;97.04
13013;BME280;22580;57.670;12.006;2024-03-02T11:30:48;100618.34;;;17.43;96.99
13013;BME280;22580;57.670;12.006;2024-03-02T11:33:23;100603.84;;;17.44;96.98
13013;BME280;22580;57.670;12.006;2024-03-02T11:35:52;100621.44;;;17.48;96.86
13013;BME280;22580;57.670;12.006;2024-03-02T11:38:20;100615.41;;;17.36;97.23
13013;BME280;22580;57.670;12.006;2024-03-02T11:40:47;100613.22;;;17.31;97.36
13013;BME280;22580;57.670;12.006;2024-03-02T11:43:15;100613.53;;;17.54;96.68
13013;BME280;22580;57.670;12.006;2024-03-02T11:45:43;100619.88;;;17.45;97.26
13013;BME280;22580;57.670;12.006;2024-03-02T11:48:13;100612.09;;;17.42;96.82
13013;BME280;22580;57.670;12.006;2024-03-02T11:50:41;100615.22;;;17.29;97.25
13013;BME280;22580;57.670;12.006;2024-03-02T11:53:10;100625.06;;;17.38;97.45
13013;BME280;22580;57.670;12.006;2024-03-02T11:55:39;100607.91;;;17.22;97.26
13013;BME280;22580;57.670;12.006;2024-03-02T11:58:09;100631.44;;;17.12;98.52
13013;BME280;22580;57.670;12.006;2024-03-02T12:00:38;100619.22;;;16.90;98.80
13013;BME280;22580;57.670;12.006;2024-03-02T12:03:06;100623.09;;;17.05;98.46
13013;BME280;22580;57.670;12.006;2024-03-02T12:05:35;100640.63;;;17.19;98.21
13013;BME280;22580;57.670;12.006;2024-03-02T12:08:03;100640.78;;;17.17;98.37
13013;BME280;22580;57.670;12.006;2024-03-02T12:10:32;100627.88;;;17.29;97.42
13013;BME280;22580;57.670;12.006;2024-03-02T12:13:01;100630.28;;;17.32;97.64
13013;BME280;22580;57.670;12.006;2024-03-02T12:15:29;100613.22;;;17.31;97.73
13013;BME280;22580;57.670;12.006;2024-03-02T12:18:00;100626.28;;;17.62;96.15
13013;BME280;22580;57.670;12.006;2024-03-02T12:20:29;100623.66;;;17.52;96.24
13013;BME280;22580;57.670;12.006;2024-03-02T12:22:58;100640.44;;;17.38;97.50
13013;BME280;22580;57.670;12.006;2024-03-02T12:25:26;100630.97;;;17.16;98.17
13013;BME280;22580;57.670;12.006;2024-03-02T12:27:55;100634.84;;;17.31;97.77
13013;BME280;22580;57.670;12.006;2024-03-02T12:30:23;100635.28;;;17.27;98.03
13013;BME280;22580;57.670;12.006;2024-03-02T12:32:50;100628.25;;;17.34;97.76
13013;BME280;22580;57.670;12.006;2024-03-02T12:35:19;100634.59;;;17.25;98.18
13013;BME280;22580;57.670;12.006;2024-03-02T12:37:47;100604.19;;;17.23;97.88
13013;BME280;22580;57.670;12.006;2024-03-02T12:40:16;100619.47;;;17.32;97.73
13013;BME280;22580;57.670;12.006;2024-03-02T12:42:44;100628.25;;;17.34;97.89
13013;BME280;22580;57.670;12.006;2024-03-02T12:45:11;100633.06;;;17.22;98.21
13013;BME280;22580;57.670;12.006;2024-03-02T12:47:40;100628.50;;;17.23;98.28
13013;BME280;22580;57.670;12.006;2024-03-02T12:50:07;100634.28;;;17.28;98.27
13013;BME280;22580;57.670;12.006;2024-03-02T12:52:36;100637.56;;;17.40;97.61
13013;BME280;22580;57.670;12.006;2024-03-02T12:55:05;100571.00;;;16.77;98.39